sensor_id;sensor_type;location;lat;lon;timestamp;pressure;altitude;pressure_sealevel;temperature;humidity
51526;BME280;37611;51.794;21.590;2023-03-23T00:00:32;99388.10;;;9.02;98.95
51526;BME280;37611;51.794;21.590;2023-03-23T00:04:48;99390.52;;;9.03;98.77
51526;BME280;37611;51.794;21.590;2023-03-23T00:08:52;99387.77;;;9.02;98.72
51526;BME280;37611;51.794;21.590;2023-03-23T00:12:58;99387.38;;;9.03;98.86
51526;BME280;37611;51.794;21.590;2023-03-23T00:17:03;99386.33;;;9.03;98.60
51526;BME280;37611;51.794;21.590;2023-03-23T00:21:05;99380.14;;;9.03;98.73
51526;BME280;37611;51.794;21.590;2023-03-23T00:25:08;99379.07;;;9.03;98.79
51526;BME280;37611;51.794;21.590;2023-03-23T00:33:17;99367.15;;;9.02;98.89
51526;BME280;37611;51.794;21.590;2023-03-23T00:37:19;99363.77;;;9.03;98.75
51526;BME280;37611;51.794;21.590;2023-03-23T00:41:20;99358.01;;;9.03;98.73
51526;BME280;37611;51.794;21.590;2023-03-23T00:45:22;99355.52;;;9.02;99.00
51526;BME280;37611;51.794;21.590;2023-03-23T00:49:26;99359.08;;;8.99;98.88
51526;BME280;37611;51.794;21.590;2023-03-23T00:53:28;99354.34;;;8.96;98.88
51526;BME280;37611;51.794;21.590;2023-03-23T00:57:29;99351.52;;;8.95;98.80
51526;BME280;37611;51.794;21.590;2023-03-23T01:01:31;99346.08;;;8.93;98.93
51526;BME280;37611;51.794;21.590;2023-03-23T01:05:35;99343.55;;;8.92;99.06
51526;BME280;37611;51.794;21.590;2023-03-23T01:09:37;99339.58;;;8.90;99.24
51526;BME280;37611;51.794;21.590;2023-03-23T01:13:42;99334.31;;;8.89;99.26
51526;BME280;37611;51.794;21.590;2023-03-23T01:17:44;99330.21;;;8.87;99.15
51526;BME280;37611;51.794;21.590;2023-03-23T01:21:46;99327.86;;;8.82;99.34
51526;BME280;37611;51.794;21.590;2023-03-23T01:25:48;99327.48;;;8.77;99.66
51526;BME280;37611;51.794;21.590;2023-03-23T01:29:50;99325.11;;;8.73;99.48
51526;BME280;37611;51.794;21.590;2023-03-23T01:33:53;99324.48;;;8.71;99.55
51526;BME280;37611;51.794;21.590;2023-03-23T01:37:56;99324.58;;;8.66;99.34
51526;BME280;37611;51.794;21.590;2023-03-23T01:41:58;99324.85;;;8.60;99.20
51526;BME280;37611;51.794;21.590;2023-03-23T01:46:00;99322.38;;;8.55;99.62
51526;BME280;37611;51.794;21.590;2023-03-23T01:50:02;99321.27;;;8.51;99.70
51526;BME280;37611;51.794;21.590;2023-03-23T01:54:06;99318.41;;;8.48;100.00
51526;BME280;37611;51.794;21.590;2023-03-23T01:58:10;99322.16;;;8.47;100.00
51526;BME280;37611;51.794;21.590;2023-03-23T02:02:14;99316.66;;;8.47;100.00
51526;BME280;37611;51.794;21.590;2023-03-23T02:06:17;99321.92;;;8.46;100.00
51526;BME280;37611;51.794;21.590;2023-03-23T02:10:19;99315.73;;;8.44;100.00
51526;BME280;37611;51.794;21.590;2023-03-23T02:14:21;99314.53;;;8.40;100.00
51526;BME280;37611;51.794;21.590;2023-03-23T02:27:23;99306.07;;;8.28;100.00
51526;BME280;37611;51.794;21.590;2023-03-23T02:35:35;99306.05;;;8.21;100.00
51526;BME280;37611;51.794;21.590;2023-03-23T02:39:49;99307.52;;;8.16;100.00
51526;BME280;37611;51.794;21.590;2023-03-23T02:43:53;99306.98;;;8.10;100.00
51526;BME280;37611;51.794;21.590;2023-03-23T02:47:55;99307.39;;;8.06;100.00
51526;BME280;37611;51.794;21.590;2023-03-23T02:51:59;99307.17;;;8.00;100.00
51526;BME280;37611;51.794;21.590;2023-03-23T02:56:04;99305.05;;;7.93;100.00
51526;BME280;37611;51.794;21.590;2023-03-23T03:00:10;99303.48;;;7.86;100.00
51526;BME280;37611;51.794;21.590;2023-03-23T03:04:17;99302.77;;;7.83;100.00
51526;BME280;37611;51.794;21.590;2023-03-23T03:08:37;99303.14;;;7.79;100.00
51526;BME280;37611;51.794;21.590;2023-03-23T03:21:01;99300.97;;;7.62;100.00
51526;BME280;37611;51.794;21.590;2023-03-23T03:25:05;99297.70;;;7.58;100.00
51526;BME280;37611;51.794;21.590;2023-03-23T03:29:08;99292.86;;;7.56;100.00
51526;BME280;37611;51.794;21.590;2023-03-23T03:33:09;99287.23;;;7.53;100.00
51526;BME280;37611;51.794;21.590;2023-03-23T03:37:13;99288.42;;;7.51;100.00
51526;BME280;37611;51.794;21.590;2023-03-23T03:41:15;99284.93;;;7.48;100.00
51526;BME280;37611;51.794;21.590;2023-03-23T03:45:19;99290.33;;;7.44;100.00
51526;BME280;37611;51.794;21.590;2023-03-23T03:49:21;99281.71;;;7.42;100.00
51526;BME280;37611;51.794;21.590;2023-03-23T03:53:24;99278.45;;;7.39;100.00
51526;BME280;37611;51.794;21.590;2023-03-23T03:57:26;99273.88;;;7.38;100.00
51526;BME280;37611;51.794;21.590;2023-03-23T04:01:28;99280.77;;;7.39;100.00
51526;BME280;37611;51.794;21.590;2023-03-23T04:05:30;99283.80;;;7.40;100.00
51526;BME280;37611;51.794;21.590;2023-03-23T04:09:31;99279.69;;;7.40;100.00
51526;BME280;37611;51.794;21.590;2023-03-23T04:13:33;99279.45;;;7.42;100.00
51526;BME280;37611;51.794;21.590;2023-03-23T04:17:35;99273.48;;;7.42;100.00
51526;BME280;37611;51.794;21.590;2023-03-23T04:21:37;99271.27;;;7.43;100.00
51526;BME280;37611;51.794;21.590;2023-03-23T04:25:39;99284.77;;;7.42;100.00
51526;BME280;37611;51.794;21.590;2023-03-23T04:29:43;99284.34;;;7.38;100.00
51526;BME280;37611;51.794;21.590;2023-03-23T04:33:51;99295.90;;;7.34;100.00
51526;BME280;37611;51.794;21.590;2023-03-23T04:37:56;99289.67;;;7.31;100.00
51526;BME280;37611;51.794;21.590;2023-03-23T04:41:58;99291.63;;;7.31;100.00
51526;BME280;37611;51.794;21.590;2023-03-23T04:46:02;99280.66;;;7.31;100.00
51526;BME280;37611;51.794;21.590;2023-03-23T04:50:04;99275.94;;;7.33;100.00
51526;BME280;37611;51.794;21.590;2023-03-23T04:54:06;99275.19;;;7.37;100.00
51526;BME280;37611;51.794;21.590;2023-03-23T04:58:08;99270.36;;;7.44;100.00
51526;BME280;37611;51.794;21.590;2023-03-23T05:02:10;99266.95;;;7.50;100.00
51526;BME280;37611;51.794;21.590;2023-03-23T05:06:12;99273.43;;;7.58;100.00
51526;BME280;37611;51.794;21.590;2023-03-23T05:10:15;99286.90;;;7.69;100.00
51526;BME280;37611;51.794;21.590;2023-03-23T05:14:17;99286.65;;;7.73;100.00
51526;BME280;37611;51.794;21.590;2023-03-23T05:18:18;99280.27;;;7.74;100.00
51526;BME280;37611;51.794;21.590;2023-03-23T05:22:22;99271.67;;;7.80;100.00
51526;BME280;37611;51.794;21.590;2023-03-23T05:26:24;99266.17;;;7.90;100.00
51526;BME280;37611;51.794;21.590;2023-03-23T05:30:30;99271.73;;;8.04;100.00
51526;BME280;37611;51.794;21.590;2023-03-23T05:34:31;99271.46;;;8.20;100.00
51526;BME280;37611;51.794;21.590;2023-03-23T05:38:33;99271.12;;;8.36;100.00
51526;BME280;37611;51.794;21.590;2023-03-23T05:42:36;99276.24;;;8.49;100.00
51526;BME280;37611;51.794;21.590;2023-03-23T05:46:37;99275.48;;;8.56;100.00
51526;BME280;37611;51.794;21.590;2023-03-23T05:50:39;99279.74;;;8.57;100.00
51526;BME280;37611;51.794;21.590;2023-03-23T05:54:41;99280.48;;;8.55;100.00
51526;BME280;37611;51.794;21.590;2023-03-23T05:58:43;99278.11;;;8.56;100.00
51526;BME280;37611;51.794;21.590;2023-03-23T06:02:46;99270.55;;;8.66;100.00
51526;BME280;37611;51.794;21.590;2023-03-23T06:06:48;99264.17;;;8.73;100.00
51526;BME280;37611;51.794;21.590;2023-03-23T06:10:49;99261.45;;;8.82;100.00
51526;BME280;37611;51.794;21.590;2023-03-23T06:14:52;99266.45;;;9.07;100.00
51526;BME280;37611;51.794;21.590;2023-03-23T06:18:54;99267.70;;;9.20;100.00
51526;BME280;37611;51.794;21.590;2023-03-23T06:22:55;99272.40;;;9.31;100.00
51526;BME280;37611;51.794;21.590;2023-03-23T06:26:58;99275.87;;;9.47;100.00
51526;BME280;37611;51.794;21.590;2023-03-23T06:31:02;99274.19;;;9.57;100.00
51526;BME280;37611;51.794;21.590;2023-03-23T06:35:06;99268.69;;;9.65;100.00
51526;BME280;37611;51.794;21.590;2023-03-23T06:39:10;99267.48;;;9.79;100.00
51526;BME280;37611;51.794;21.590;2023-03-23T06:43:12;99279.36;;;9.96;100.00
51526;BME280;37611;51.794;21.590;2023-03-23T06:47:15;99281.40;;;10.14;100.00
51526;BME280;37611;51.794;21.590;2023-03-23T06:51:17;99273.80;;;10.37;100.00
51526;BME280;37611;51.794;21.590;2023-03-23T06:55:19;99269.22;;;10.64;100.00
51526;BME280;37611;51.794;21.590;2023-03-23T06:59:22;99279.84;;;10.95;100.00
51526;BME280;37611;51.794;21.590;2023-03-23T07:03:24;99290.30;;;11.10;100.00
51526;BME280;37611;51.794;21.590;2023-03-23T07:07:25;99282.94;;;11.34;99.84
51526;BME280;37611;51.794;21.590;2023-03-23T07:11:27;99286.91;;;11.45;98.67
51526;BME280;37611;51.794;21.590;2023-03-23T07:15:29;99292.77;;;11.45;97.94
51526;BME280;37611;51.794;21.590;2023-03-23T07:19:31;99301.73;;;11.51;97.44
51526;BME280;37611;51.794;21.590;2023-03-23T07:23:33;99302.10;;;11.51;97.15
51526;BME280;37611;51.794;21.590;2023-03-23T07:27:35;99300.04;;;11.51;96.97
51526;BME280;37611;51.794;21.590;2023-03-23T07:31:36;99298.79;;;11.66;97.44
51526;BME280;37611;51.794;21.590;2023-03-23T07:35:38;99295.31;;;11.84;96.82
51526;BME280;37611;51.794;21.590;2023-03-23T07:39:40;99301.57;;;11.97;96.50
51526;BME280;37611;51.794;21.590;2023-03-23T07:43:42;99301.16;;;12.26;95.53
51526;BME280;37611;51.794;21.590;2023-03-23T07:47:44;99299.75;;;12.61;94.86
51526;BME280;37611;51.794;21.590;2023-03-23T07:51:46;99297.65;;;12.94;93.17
51526;BME280;37611;51.794;21.590;2023-03-23T07:55:48;99296.63;;;13.27;90.82
51526;BME280;37611;51.794;21.590;2023-03-23T07:59:50;99298.52;;;13.52;89.35
51526;BME280;37611;51.794;21.590;2023-03-23T08:03:52;99298.23;;;13.69;88.31
51526;BME280;37611;51.794;21.590;2023-03-23T08:07:55;99302.82;;;13.87;87.81
51526;BME280;37611;51.794;21.590;2023-03-23T08:11:57;99294.45;;;14.03;86.72
51526;BME280;37611;51.794;21.590;2023-03-23T08:16:00;99292.23;;;14.29;85.95
51526;BME280;37611;51.794;21.590;2023-03-23T08:20:05;99292.02;;;14.59;84.17
51526;BME280;37611;51.794;21.590;2023-03-23T08:24:14;99288.65;;;14.89;83.40
51526;BME280;37611;51.794;21.590;2023-03-23T08:28:15;99291.52;;;15.00;82.60
51526;BME280;37611;51.794;21.590;2023-03-23T08:32:18;99291.21;;;15.00;80.74
51526;BME280;37611;51.794;21.590;2023-03-23T08:36:20;99295.23;;;14.95;80.21
51526;BME280;37611;51.794;21.590;2023-03-23T08:40:23;99295.83;;;14.92;80.29
51526;BME280;37611;51.794;21.590;2023-03-23T08:44:25;99292.64;;;14.99;80.65
51526;BME280;37611;51.794;21.590;2023-03-23T08:48:27;99295.58;;;15.05;79.97
51526;BME280;37611;51.794;21.590;2023-03-23T08:52:29;99295.38;;;15.03;79.80
51526;BME280;37611;51.794;21.590;2023-03-23T08:56:31;99297.98;;;15.03;80.23
51526;BME280;37611;51.794;21.590;2023-03-23T09:00:32;99295.20;;;15.08;79.80
51526;BME280;37611;51.794;21.590;2023-03-23T09:04:34;99288.40;;;15.06;79.07
51526;BME280;37611;51.794;21.590;2023-03-23T09:08:36;99282.55;;;15.02;78.32
51526;BME280;37611;51.794;21.590;2023-03-23T09:12:40;99284.44;;;15.05;78.66
51526;BME280;37611;51.794;21.590;2023-03-23T09:16:42;99282.22;;;15.13;78.47
51526;BME280;37611;51.794;21.590;2023-03-23T09:20:45;99276.58;;;15.15;77.57
51526;BME280;37611;51.794;21.590;2023-03-23T09:24:47;99275.77;;;15.22;77.62
51526;BME280;37611;51.794;21.590;2023-03-23T09:28:49;99273.59;;;15.40;77.87
51526;BME280;37611;51.794;21.590;2023-03-23T09:32:50;99269.97;;;15.58;76.20
51526;BME280;37611;51.794;21.590;2023-03-23T09:36:52;99270.73;;;15.66;75.91
51526;BME280;37611;51.794;21.590;2023-03-23T09:49:42;99267.75;;;16.23;73.49
51526;BME280;37611;51.794;21.590;2023-03-23T09:53:50;99269.07;;;16.47;72.39
51526;BME280;37611;51.794;21.590;2023-03-23T09:57:58;99263.11;;;16.90;71.66
51526;BME280;37611;51.794;21.590;2023-03-23T10:02:21;99256.05;;;17.48;69.32
51526;BME280;37611;51.794;21.590;2023-03-23T10:06:26;99256.55;;;17.42;67.27
51526;BME280;37611;51.794;21.590;2023-03-23T10:15:07;99253.67;;;17.17;66.31
51526;BME280;37611;51.794;21.590;2023-03-23T10:32:11;99240.33;;;16.72;68.18
51526;BME280;37611;51.794;21.590;2023-03-23T10:36:37;99237.07;;;16.83;67.33
51526;BME280;37611;51.794;21.590;2023-03-23T10:40:50;99228.41;;;16.78;66.64
51526;BME280;37611;51.794;21.590;2023-03-23T10:44:55;99231.70;;;16.81;66.18
51526;BME280;37611;51.794;21.590;2023-03-23T10:48:59;99220.05;;;16.93;65.02
51526;BME280;37611;51.794;21.590;2023-03-23T10:53:13;99218.15;;;17.03;63.49
51526;BME280;37611;51.794;21.590;2023-03-23T10:57:31;99213.45;;;17.10;62.79
51526;BME280;37611;51.794;21.590;2023-03-23T11:01:34;99219.21;;;17.16;61.70
51526;BME280;37611;51.794;21.590;2023-03-23T11:05:42;99215.27;;;17.28;62.13
51526;BME280;37611;51.794;21.590;2023-03-23T11:09:53;99201.91;;;17.45;61.18
51526;BME280;37611;51.794;21.590;2023-03-23T11:13:58;99192.69;;;17.60;60.86
51526;BME280;37611;51.794;21.590;2023-03-23T11:18:04;99178.31;;;17.84;59.35
51526;BME280;37611;51.794;21.590;2023-03-23T11:22:08;99175.88;;;18.02;59.01
51526;BME280;37611;51.794;21.590;2023-03-23T11:30:25;99165.80;;;18.54;58.03
51526;BME280;37611;51.794;21.590;2023-03-23T11:34:34;99166.12;;;18.66;56.92
51526;BME280;37611;51.794;21.590;2023-03-23T11:38:37;99164.63;;;18.85;57.81
51526;BME280;37611;51.794;21.590;2023-03-23T11:47:04;99151.77;;;18.91;55.86
51526;BME280;37611;51.794;21.590;2023-03-23T11:51:16;99155.20;;;18.80;54.44
51526;BME280;37611;51.794;21.590;2023-03-23T11:55:25;99150.95;;;18.70;54.52
51526;BME280;37611;51.794;21.590;2023-03-23T11:59:34;99141.54;;;18.69;54.87
51526;BME280;37611;51.794;21.590;2023-03-23T12:03:58;99133.21;;;18.72;54.53
51526;BME280;37611;51.794;21.590;2023-03-23T12:08:23;99134.08;;;18.61;53.96
51526;BME280;37611;51.794;21.590;2023-03-23T12:51:30;99093.54;;;19.66;49.20
51526;BME280;37611;51.794;21.590;2023-03-23T12:55:48;99089.76;;;19.65;48.82
51526;BME280;37611;51.794;21.590;2023-03-23T13:04:27;99090.36;;;19.48;48.34
51526;BME280;37611;51.794;21.590;2023-03-23T13:08:37;99084.75;;;19.48;48.68
51526;BME280;37611;51.794;21.590;2023-03-23T13:12:41;99078.02;;;19.46;48.08
51526;BME280;37611;51.794;21.590;2023-03-23T13:17:13;99072.67;;;19.31;48.09
51526;BME280;37611;51.794;21.590;2023-03-23T13:21:24;99064.17;;;19.21;48.36
51526;BME280;37611;51.794;21.590;2023-03-23T13:26:06;99061.87;;;19.16;48.31
51526;BME280;37611;51.794;21.590;2023-03-23T13:30:21;99043.81;;;19.08;48.29
51526;BME280;37611;51.794;21.590;2023-03-23T13:34:28;99020.94;;;19.02;47.83
51526;BME280;37611;51.794;21.590;2023-03-23T13:38:31;99036.41;;;18.97;48.06
51526;BME280;37611;51.794;21.590;2023-03-23T13:42:33;99049.77;;;18.95;48.04
51526;BME280;37611;51.794;21.590;2023-03-23T13:46:37;99056.26;;;18.96;47.93
51526;BME280;37611;51.794;21.590;2023-03-23T13:50:55;99059.55;;;18.94;48.03
51526;BME280;37611;51.794;21.590;2023-03-23T14:07:59;99055.09;;;18.61;48.16
51526;BME280;37611;51.794;21.590;2023-03-23T14:12:05;99048.54;;;18.59;48.56
51526;BME280;37611;51.794;21.590;2023-03-23T14:16:14;99034.15;;;18.55;48.95
51526;BME280;37611;51.794;21.590;2023-03-23T14:20:25;99034.92;;;18.52;49.30
51526;BME280;37611;51.794;21.590;2023-03-23T14:24:33;99041.77;;;18.50;49.53
51526;BME280;37611;51.794;21.590;2023-03-23T14:28:39;99038.88;;;18.45;49.75
51526;BME280;37611;51.794;21.590;2023-03-23T14:32:42;99034.27;;;18.35;50.29
51526;BME280;37611;51.794;21.590;2023-03-23T14:36:45;99030.11;;;18.29;50.70
51526;BME280;37611;51.794;21.590;2023-03-23T14:40:47;99037.54;;;18.24;51.15
51526;BME280;37611;51.794;21.590;2023-03-23T14:44:50;99047.77;;;18.21;51.59
51526;BME280;37611;51.794;21.590;2023-03-23T14:48:52;99047.91;;;18.13;51.86
51526;BME280;37611;51.794;21.590;2023-03-23T14:53:09;99054.50;;;18.05;52.19
51526;BME280;37611;51.794;21.590;2023-03-23T14:57:25;99060.83;;;17.97;52.73
51526;BME280;37611;51.794;21.590;2023-03-23T15:01:29;99061.13;;;17.87;53.17
51526;BME280;37611;51.794;21.590;2023-03-23T15:05:37;99066.81;;;17.78;53.69
51526;BME280;37611;51.794;21.590;2023-03-23T15:09:42;99079.04;;;17.66;54.71
51526;BME280;37611;51.794;21.590;2023-03-23T15:13:51;99084.01;;;17.55;55.37
51526;BME280;37611;51.794;21.590;2023-03-23T15:17:56;99083.98;;;17.43;56.23
51526;BME280;37611;51.794;21.590;2023-03-23T15:22:28;99089.02;;;17.31;57.15
51526;BME280;37611;51.794;21.590;2023-03-23T15:26:41;99089.30;;;17.18;58.13
51526;BME280;37611;51.794;21.590;2023-03-23T15:34:49;99099.35;;;17.01;59.40
51526;BME280;37611;51.794;21.590;2023-03-23T15:38:51;99105.30;;;16.96;59.52
51526;BME280;37611;51.794;21.590;2023-03-23T15:43:24;99108.14;;;16.87;59.78
51526;BME280;37611;51.794;21.590;2023-03-23T15:47:37;99108.59;;;16.76;60.18
51526;BME280;37611;51.794;21.590;2023-03-23T15:51:45;99112.58;;;16.67;61.11
51526;BME280;37611;51.794;21.590;2023-03-23T15:55:46;99108.38;;;16.58;61.57
51526;BME280;37611;51.794;21.590;2023-03-23T15:59:48;99117.27;;;16.52;61.90
51526;BME280;37611;51.794;21.590;2023-03-23T16:03:58;99117.89;;;16.46;62.15
51526;BME280;37611;51.794;21.590;2023-03-23T16:08:02;99124.55;;;16.39;62.50
51526;BME280;37611;51.794;21.590;2023-03-23T16:12:03;99125.19;;;16.33;62.61
51526;BME280;37611;51.794;21.590;2023-03-23T16:16:11;99132.48;;;16.25;62.72
51526;BME280;37611;51.794;21.590;2023-03-23T16:20:17;99135.43;;;16.17;62.72
51526;BME280;37611;51.794;21.590;2023-03-23T16:24:20;99141.09;;;16.11;62.89
51526;BME280;37611;51.794;21.590;2023-03-23T16:28:21;99144.29;;;16.04;63.17
51526;BME280;37611;51.794;21.590;2023-03-23T16:32:23;99145.60;;;15.97;63.20
51526;BME280;37611;51.794;21.590;2023-03-23T16:36:25;99154.34;;;15.91;63.31
51526;BME280;37611;51.794;21.590;2023-03-23T16:40:26;99154.44;;;15.81;63.67
51526;BME280;37611;51.794;21.590;2023-03-23T16:44:28;99157.55;;;15.74;64.34
51526;BME280;37611;51.794;21.590;2023-03-23T16:48:30;99161.77;;;15.65;65.22
51526;BME280;37611;51.794;21.590;2023-03-23T16:52:32;99161.69;;;15.59;65.45
51526;BME280;37611;51.794;21.590;2023-03-23T16:56:34;99156.77;;;15.49;65.78
51526;BME280;37611;51.794;21.590;2023-03-23T17:00:36;99153.38;;;15.41;65.98
51526;BME280;37611;51.794;21.590;2023-03-23T17:04:45;99153.67;;;15.37;66.06
51526;BME280;37611;51.794;21.590;2023-03-23T17:08:47;99164.51;;;15.32;66.27
51526;BME280;37611;51.794;21.590;2023-03-23T17:12:48;99165.80;;;15.28;66.16
51526;BME280;37611;51.794;21.590;2023-03-23T17:16:50;99167.35;;;15.24;66.21
51526;BME280;37611;51.794;21.590;2023-03-23T17:20:52;99173.33;;;15.20;66.43
51526;BME280;37611;51.794;21.590;2023-03-23T17:24:54;99177.85;;;15.15;66.62
51526;BME280;37611;51.794;21.590;2023-03-23T17:28:57;99183.21;;;15.12;66.55
51526;BME280;37611;51.794;21.590;2023-03-23T17:32:59;99190.00;;;15.09;66.96
51526;BME280;37611;51.794;21.590;2023-03-23T17:37:01;99183.16;;;15.06;67.21
51526;BME280;37611;51.794;21.590;2023-03-23T17:41:04;99189.73;;;15.02;67.50
51526;BME280;37611;51.794;21.590;2023-03-23T17:45:08;99184.48;;;14.99;67.57
51526;BME280;37611;51.794;21.590;2023-03-23T17:49:10;99177.85;;;14.94;67.69
51526;BME280;37611;51.794;21.590;2023-03-23T17:53:12;99177.02;;;14.89;67.70
51526;BME280;37611;51.794;21.590;2023-03-23T17:57:14;99181.40;;;14.84;67.84
51526;BME280;37611;51.794;21.590;2023-03-23T18:01:16;99178.52;;;14.80;68.06
51526;BME280;37611;51.794;21.590;2023-03-23T18:05:17;99180.98;;;14.76;68.37
51526;BME280;37611;51.794;21.590;2023-03-23T18:09:19;99185.23;;;14.71;68.45
51526;BME280;37611;51.794;21.590;2023-03-23T18:13:26;99188.71;;;14.66;68.66
51526;BME280;37611;51.794;21.590;2023-03-23T18:17:27;99200.16;;;14.61;69.10
51526;BME280;37611;51.794;21.590;2023-03-23T18:21:29;99217.63;;;14.56;69.51
51526;BME280;37611;51.794;21.590;2023-03-23T18:25:32;99223.29;;;14.51;69.82
51526;BME280;37611;51.794;21.590;2023-03-23T18:29:34;99241.13;;;14.46;69.77
51526;BME280;37611;51.794;21.590;2023-03-23T18:33:37;99243.05;;;14.40;70.25
51526;BME280;37611;51.794;21.590;2023-03-23T18:37:39;99243.72;;;14.35;70.45
51526;BME280;37611;51.794;21.590;2023-03-23T18:41:41;99251.90;;;14.32;70.96
51526;BME280;37611;51.794;21.590;2023-03-23T18:45:53;99252.80;;;14.32;71.24
51526;BME280;37611;51.794;21.590;2023-03-23T18:49:56;99238.93;;;14.31;71.09
51526;BME280;37611;51.794;21.590;2023-03-23T18:53:59;99234.64;;;14.32;71.08
51526;BME280;37611;51.794;21.590;2023-03-23T18:58:01;99244.57;;;14.30;71.66
51526;BME280;37611;51.794;21.590;2023-03-23T19:02:03;99249.23;;;14.28;71.82
51526;BME280;37611;51.794;21.590;2023-03-23T19:06:12;99255.85;;;14.27;72.26
51526;BME280;37611;51.794;21.590;2023-03-23T19:10:15;99259.64;;;14.27;72.48
51526;BME280;37611;51.794;21.590;2023-03-23T19:14:17;99263.29;;;14.25;72.33
51526;BME280;37611;51.794;21.590;2023-03-23T19:18:20;99273.35;;;14.22;72.65
51526;BME280;37611;51.794;21.590;2023-03-23T19:22:21;99274.91;;;14.20;72.81
51526;BME280;37611;51.794;21.590;2023-03-23T19:26:30;99272.51;;;14.18;72.93
51526;BME280;37611;51.794;21.590;2023-03-23T19:30:32;99266.96;;;14.16;73.27
51526;BME280;37611;51.794;21.590;2023-03-23T19:34:34;99260.25;;;14.13;73.40
51526;BME280;37611;51.794;21.590;2023-03-23T19:38:35;99256.13;;;14.11;73.27
51526;BME280;37611;51.794;21.590;2023-03-23T19:42:37;99262.89;;;14.08;73.67
51526;BME280;37611;51.794;21.590;2023-03-23T19:46:39;99260.17;;;14.04;73.82
51526;BME280;37611;51.794;21.590;2023-03-23T19:50:43;99263.92;;;13.99;74.24
51526;BME280;37611;51.794;21.590;2023-03-23T19:54:46;99268.08;;;13.95;74.38
51526;BME280;37611;51.794;21.590;2023-03-23T19:58:48;99275.95;;;13.89;74.39
51526;BME280;37611;51.794;21.590;2023-03-23T20:02:50;99282.31;;;13.82;74.46
51526;BME280;37611;51.794;21.590;2023-03-23T20:06:54;99284.28;;;13.74;75.24
51526;BME280;37611;51.794;21.590;2023-03-23T20:11:07;99291.38;;;13.69;75.49
51526;BME280;37611;51.794;21.590;2023-03-23T20:15:09;99292.02;;;13.64;75.63
51526;BME280;37611;51.794;21.590;2023-03-23T20:19:11;99291.25;;;13.59;75.68
51526;BME280;37611;51.794;21.590;2023-03-23T20:23:13;99289.42;;;13.56;76.13
51526;BME280;37611;51.794;21.590;2023-03-23T20:27:15;99285.13;;;13.52;76.29
51526;BME280;37611;51.794;21.590;2023-03-23T20:31:23;99287.61;;;13.49;76.41
51526;BME280;37611;51.794;21.590;2023-03-23T20:35:26;99286.79;;;13.47;76.59
51526;BME280;37611;51.794;21.590;2023-03-23T20:39:31;99286.02;;;13.43;76.48
51526;BME280;37611;51.794;21.590;2023-03-23T20:43:34;99293.98;;;13.37;77.22
51526;BME280;37611;51.794;21.590;2023-03-23T20:47:37;99300.25;;;13.30;77.61
51526;BME280;37611;51.794;21.590;2023-03-23T20:51:39;99303.41;;;13.26;78.21
51526;BME280;37611;51.794;21.590;2023-03-23T20:55:41;99296.60;;;13.24;78.69
51526;BME280;37611;51.794;21.590;2023-03-23T20:59:43;99291.85;;;13.21;79.26
51526;BME280;37611;51.794;21.590;2023-03-23T21:03:45;99281.39;;;13.17;79.93
51526;BME280;37611;51.794;21.590;2023-03-23T21:07:47;99279.11;;;13.12;80.39
51526;BME280;37611;51.794;21.590;2023-03-23T21:11:50;99281.56;;;13.05;81.23
51526;BME280;37611;51.794;21.590;2023-03-23T21:15:52;99280.02;;;12.98;81.42
51526;BME280;37611;51.794;21.590;2023-03-23T21:19:54;99283.69;;;12.93;82.57
51526;BME280;37611;51.794;21.590;2023-03-23T21:23:56;99278.25;;;12.85;83.92
51526;BME280;37611;51.794;21.590;2023-03-23T21:27:58;99263.60;;;12.85;85.32
51526;BME280;37611;51.794;21.590;2023-03-23T21:32:00;99251.15;;;12.87;85.34
51526;BME280;37611;51.794;21.590;2023-03-23T21:36:01;99254.73;;;12.92;86.01
51526;BME280;37611;51.794;21.590;2023-03-23T21:40:05;99256.98;;;12.97;86.16
51526;BME280;37611;51.794;21.590;2023-03-23T21:44:13;99261.11;;;13.01;86.32
51526;BME280;37611;51.794;21.590;2023-03-23T21:48:15;99260.46;;;13.01;86.02
51526;BME280;37611;51.794;21.590;2023-03-23T21:52:17;99259.51;;;13.03;86.17
51526;BME280;37611;51.794;21.590;2023-03-23T21:56:20;99260.46;;;13.03;86.32
51526;BME280;37611;51.794;21.590;2023-03-23T22:00:24;99249.84;;;13.05;85.99
51526;BME280;37611;51.794;21.590;2023-03-23T22:04:27;99252.69;;;13.05;85.96
51526;BME280;37611;51.794;21.590;2023-03-23T22:08:28;99253.45;;;13.07;85.73
51526;BME280;37611;51.794;21.590;2023-03-23T22:12:31;99260.23;;;13.08;85.78
51526;BME280;37611;51.794;21.590;2023-03-23T22:16:33;99258.13;;;13.09;85.71
51526;BME280;37611;51.794;21.590;2023-03-23T22:20:35;99254.19;;;13.10;86.09
51526;BME280;37611;51.794;21.590;2023-03-23T22:24:37;99256.70;;;13.09;85.63
51526;BME280;37611;51.794;21.590;2023-03-23T22:28:39;99250.17;;;13.10;85.73
51526;BME280;37611;51.794;21.590;2023-03-23T22:32:41;99253.84;;;13.06;85.92
51526;BME280;37611;51.794;21.590;2023-03-23T22:36:43;99261.02;;;13.03;85.80
51526;BME280;37611;51.794;21.590;2023-03-23T22:40:53;99267.41;;;13.02;85.72
51526;BME280;37611;51.794;21.590;2023-03-23T22:44:54;99266.71;;;13.04;85.95
51526;BME280;37611;51.794;21.590;2023-03-23T22:48:56;99265.67;;;13.06;86.07
51526;BME280;37611;51.794;21.590;2023-03-23T22:52:58;99269.71;;;13.11;85.53
51526;BME280;37611;51.794;21.590;2023-03-23T22:57:00;99271.46;;;13.12;85.72
51526;BME280;37611;51.794;21.590;2023-03-23T23:01:05;99272.84;;;13.13;85.43
51526;BME280;37611;51.794;21.590;2023-03-23T23:05:09;99271.16;;;13.11;85.28
51526;BME280;37611;51.794;21.590;2023-03-23T23:09:11;99274.87;;;13.09;85.63
51526;BME280;37611;51.794;21.590;2023-03-23T23:13:14;99278.08;;;13.08;85.33
51526;BME280;37611;51.794;21.590;2023-03-23T23:17:16;99278.40;;;13.05;85.46